createdAt,value
2017-11-25T00:01:13.653Z,82.60
2017-11-25T00:03:44.318Z,82.60
2017-11-25T00:06:14.057Z,82.50
2017-11-25T00:08:43.972Z,82.60
2017-11-25T00:11:14.704Z,82.70
2017-11-25T00:13:45.241Z,82.70
2017-11-25T00:16:15.050Z,82.70
2017-11-25T00:18:45.166Z,82.60
2017-11-25T00:21:14.885Z,82.60
2017-11-25T00:23:44.953Z,82.00
2017-11-25T00:26:14.529Z,82.20
2017-11-25T00:28:44.443Z,81.40
2017-11-25T00:31:15.779Z,80.90
2017-11-25T00:33:45.696Z,80.80
2017-11-25T00:36:15.645Z,81.50
2017-11-25T00:38:46.205Z,81.40
2017-11-25T00:41:15.929Z,81.40
2017-11-25T00:43:45.645Z,81.60
2017-11-25T00:46:15.277Z,81.50
2017-11-25T00:48:46.082Z,81.30
2017-11-25T00:51:15.714Z,81.30
2017-11-25T00:53:46.640Z,81.40
2017-11-25T00:56:16.357Z,81.40
2017-11-25T00:58:46.148Z,81.50
2017-11-25T01:01:15.879Z,81.60
2017-11-25T01:03:47.002Z,81.00
2017-11-25T01:06:16.712Z,81.00
2017-11-25T01:08:46.954Z,81.40
2017-11-25T01:11:16.885Z,81.60
2017-11-25T01:13:48.008Z,81.60
2017-11-25T01:16:17.834Z,81.30
2017-11-25T01:18:47.427Z,80.80
2017-11-25T01:21:17.137Z,81.00
2017-11-25T01:23:47.065Z,81.70
2017-11-25T01:26:16.971Z,81.90
2017-11-25T01:28:47.195Z,81.40
2017-11-25T01:31:16.787Z,81.60
2017-11-25T01:33:46.690Z,81.90
2017-11-25T01:36:17.014Z,81.90
2017-11-25T01:38:46.929Z,81.70
2017-11-25T01:41:16.760Z,82.00
2017-11-25T01:43:46.368Z,81.90
2017-11-25T01:46:16.774Z,81.80
2017-11-25T01:48:49.403Z,81.90
2017-11-25T01:51:19.059Z,81.80
2017-11-25T01:53:48.706Z,81.80
2017-11-25T01:56:19.218Z,81.60
2017-11-25T01:58:49.131Z,81.60
2017-11-25T02:01:18.798Z,81.60
2017-11-25T02:03:48.578Z,81.80
2017-11-25T02:06:18.571Z,81.90
2017-11-25T02:08:48.351Z,81.90
2017-11-25T02:11:18.069Z,81.60
2017-11-25T02:13:48.030Z,81.60
2017-11-25T02:16:17.669Z,81.80
2017-11-25T02:18:47.334Z,81.80
2017-11-25T02:21:16.937Z,81.60
2017-11-25T02:23:46.614Z,81.80
2017-11-25T02:26:17.071Z,81.90
2017-11-25T02:28:46.977Z,81.90
2017-11-25T02:31:16.688Z,82.10
2017-11-25T02:33:46.480Z,81.40
2017-11-25T02:36:16.188Z,81.90
2017-11-25T02:38:45.815Z,81.80
2017-11-25T02:41:15.957Z,81.60
2017-11-25T02:43:45.841Z,81.60
2017-11-25T02:46:15.741Z,81.60
2017-11-25T02:48:45.357Z,81.90
2017-11-25T02:51:15.160Z,82.10
2017-11-25T02:53:44.869Z,81.90
2017-11-25T02:56:14.699Z,82.00
2017-11-25T02:58:45.106Z,82.10
2017-11-25T03:01:14.919Z,82.10
2017-11-25T03:03:44.473Z,82.10
2017-11-25T03:06:14.030Z,81.60
2017-11-25T03:08:43.636Z,81.40
2017-11-25T03:11:13.322Z,81.30
2017-11-25T03:13:42.916Z,81.50
2017-11-25T03:16:12.702Z,81.50
2017-11-25T03:18:42.475Z,81.60
2017-11-25T03:21:12.186Z,81.70
2017-11-25T03:23:41.716Z,81.70
2017-11-25T03:26:14.920Z,82.00
2017-11-25T03:28:46.301Z,81.70
2017-11-25T03:31:16.122Z,81.60
2017-11-25T03:33:45.975Z,81.80
2017-11-25T03:36:15.668Z,82.20
2017-11-25T03:38:45.185Z,82.20
2017-11-25T03:41:14.776Z,82.00
2017-11-25T03:43:44.979Z,82.10
2017-11-25T03:46:14.749Z,82.20
2017-11-25T03:48:44.439Z,81.80
2017-11-25T03:51:13.983Z,81.70
2017-11-25T03:53:43.575Z,81.90
2017-11-25T03:56:13.815Z,81.90
2017-11-25T03:58:43.441Z,81.90
2017-11-25T04:01:13.193Z,81.90
2017-11-25T04:03:42.862Z,81.80
2017-11-25T04:06:12.681Z,81.90
2017-11-25T04:08:42.401Z,81.70
2017-11-25T04:11:12.230Z,82.00
2017-11-25T04:13:41.950Z,81.90
2017-11-25T04:16:12.450Z,81.70
2017-11-25T04:18:42.268Z,81.60
2017-11-25T04:21:12.061Z,81.30
2017-11-25T04:23:41.915Z,81.50
2017-11-25T04:26:11.650Z,81.60
2017-11-25T04:28:41.406Z,81.90
2017-11-25T04:31:10.985Z,81.80
2017-11-25T04:33:40.621Z,81.60
2017-11-25T04:36:10.571Z,81.50
2017-11-25T04:38:40.489Z,81.20
2017-11-25T04:41:10.982Z,81.10
2017-11-25T04:43:40.708Z,80.90
2017-11-25T04:46:10.512Z,81.40
2017-11-25T04:48:40.426Z,81.50
2017-11-25T04:51:10.070Z,81.60
2017-11-25T04:53:40.038Z,81.20
2017-11-25T04:56:09.736Z,81.90
2017-11-25T04:58:39.473Z,81.90
2017-11-25T05:01:10.566Z,82.20
2017-11-25T05:03:40.346Z,82.10
2017-11-25T05:06:10.046Z,82.10
2017-11-25T05:08:39.949Z,81.80
2017-11-25T05:11:11.292Z,82.40
2017-11-25T05:13:40.816Z,82.40
2017-11-25T05:16:10.434Z,82.40
2017-11-25T05:18:40.910Z,82.50
2017-11-25T05:21:10.650Z,82.30
2017-11-25T05:23:40.465Z,82.60
2017-11-25T05:26:10.063Z,82.70
2017-11-25T05:28:39.701Z,82.40
2017-11-25T05:31:10.220Z,82.40
2017-11-25T05:33:40.153Z,82.30
2017-11-25T05:36:09.963Z,82.70
2017-11-25T05:38:39.673Z,82.60
2017-11-25T05:41:09.346Z,82.40
2017-11-25T05:43:40.609Z,82.80
2017-11-25T05:46:10.325Z,82.80
2017-11-25T05:48:40.497Z,83.20
2017-11-25T05:51:10.066Z,82.90
2017-11-25T05:53:39.789Z,83.00
2017-11-25T05:56:10.265Z,83.00
2017-11-25T05:58:40.177Z,83.30
2017-11-25T06:01:09.887Z,82.90
2017-11-25T06:03:39.597Z,82.90
2017-11-25T06:06:09.162Z,82.80
2017-11-25T06:08:38.708Z,83.90
2017-11-25T06:11:08.435Z,83.20
2017-11-25T06:13:38.043Z,82.70
2017-11-25T06:16:07.779Z,83.10
2017-11-25T06:18:37.461Z,82.70
2017-11-25T06:21:07.157Z,82.80
2017-11-25T06:23:37.758Z,82.80
2017-11-25T06:26:07.360Z,82.80
2017-11-25T06:28:37.602Z,83.30
2017-11-25T06:31:07.527Z,83.10
2017-11-25T06:33:37.236Z,83.20
2017-11-25T06:36:07.559Z,83.10
2017-11-25T06:38:37.271Z,83.10
2017-11-25T06:41:07.776Z,83.10
2017-11-25T06:43:37.504Z,83.30
2017-11-25T06:46:07.138Z,83.30
2017-11-25T06:48:38.274Z,83.30
2017-11-25T06:51:08.070Z,82.90
2017-11-25T06:53:37.749Z,83.00
2017-11-25T06:56:07.461Z,83.10
2017-11-25T06:58:37.135Z,83.20
2017-11-25T07:01:07.659Z,83.30
2017-11-25T07:03:38.432Z,83.30
2017-11-25T07:06:08.167Z,83.30
2017-11-25T07:08:37.801Z,83.20
2017-11-25T07:11:08.415Z,83.50
2017-11-25T07:13:38.015Z,83.50
2017-11-25T07:16:07.826Z,83.30
2017-11-25T07:18:37.540Z,83.20
2017-11-25T07:21:07.450Z,83.50
2017-11-25T07:23:37.286Z,83.30
2017-11-25T07:26:06.918Z,83.20
2017-11-25T07:28:36.681Z,83.40
2017-11-25T07:31:06.494Z,83.50
2017-11-25T07:33:36.410Z,83.70
2017-11-25T07:36:06.330Z,83.50
2017-11-25T07:38:36.452Z,83.50
2017-11-25T07:41:06.528Z,83.60
2017-11-25T07:43:36.271Z,83.80
2017-11-25T07:46:06.593Z,83.40
2017-11-25T07:48:36.508Z,83.30
2017-11-25T07:51:07.180Z,83.10
2017-11-25T07:53:36.952Z,83.40
2017-11-25T07:56:06.589Z,83.50
2017-11-25T07:58:36.151Z,83.30
2017-11-25T08:01:06.085Z,84.40
2017-11-25T08:03:35.806Z,83.10
2017-11-25T08:06:05.996Z,83.40
2017-11-25T08:08:35.737Z,83.40
2017-11-25T08:11:05.514Z,83.40
2017-11-25T08:13:35.196Z,83.50
2017-11-25T08:16:05.552Z,83.30
2017-11-25T08:18:35.268Z,83.30
2017-11-25T08:21:05.314Z,83.30
2017-11-25T08:23:35.309Z,83.30
2017-11-25T08:26:04.890Z,82.90
2017-11-25T08:28:35.754Z,83.30
2017-11-25T08:31:06.280Z,83.50
2017-11-25T08:33:36.710Z,83.30
2017-11-25T08:36:06.851Z,83.40
2017-11-25T08:38:37.048Z,83.10
2017-11-25T08:41:07.064Z,83.00
2017-11-25T08:43:36.777Z,82.90
2017-11-25T08:46:06.487Z,82.50
2017-11-25T08:48:36.940Z,82.70
2017-11-25T08:51:06.928Z,82.70
2017-11-25T08:53:36.829Z,82.90
2017-11-25T08:56:07.370Z,82.80
2017-11-25T08:58:37.285Z,82.80
2017-11-25T09:01:08.531Z,83.00
2017-11-25T09:03:38.308Z,83.00
2017-11-25T09:06:08.255Z,82.50
2017-11-25T09:08:38.904Z,82.80
2017-11-25T09:11:09.651Z,82.60
2017-11-25T09:13:41.444Z,82.60
2017-11-25T09:16:11.076Z,82.80
2017-11-25T09:18:40.896Z,82.70
2017-11-25T09:21:10.863Z,82.60
2017-11-25T09:23:40.429Z,82.80
2017-11-25T09:26:10.235Z,82.90
2017-11-25T09:28:39.842Z,83.10
2017-11-25T09:31:09.598Z,83.00
2017-11-25T09:33:39.186Z,82.90
2017-11-25T09:36:09.278Z,82.80
2017-11-25T09:38:39.334Z,82.60
2017-11-25T09:41:09.615Z,82.80
2017-11-25T09:43:39.529Z,82.80
2017-11-25T09:46:09.570Z,83.00
2017-11-25T09:48:40.918Z,83.80
2017-11-25T09:51:10.914Z,83.10
2017-11-25T09:53:40.627Z,82.70
2017-11-25T09:56:10.435Z,83.00
2017-11-25T09:58:40.250Z,83.00
2017-11-25T10:01:10.264Z,83.10
2017-11-25T10:03:40.388Z,83.30
2017-11-25T10:06:10.294Z,83.00
2017-11-25T10:08:40.004Z,83.20
2017-11-25T10:11:09.942Z,83.20
2017-11-25T10:13:40.651Z,84.00
2017-11-25T10:16:10.512Z,83.40
2017-11-25T10:18:40.399Z,83.30
2017-11-25T10:21:11.215Z,83.40
2017-11-25T10:23:42.561Z,83.20
2017-11-25T10:26:12.411Z,83.20
2017-11-25T10:28:42.319Z,84.10
2017-11-25T10:31:14.744Z,83.50
2017-11-25T10:33:44.712Z,83.50
2017-11-25T10:36:14.593Z,83.70
2017-11-25T10:38:44.481Z,84.20
2017-11-25T10:41:14.366Z,83.80
2017-11-25T10:43:44.232Z,83.70
2017-11-25T10:46:14.485Z,84.00
2017-11-25T10:48:44.505Z,84.10
2017-11-25T10:51:14.311Z,84.50
2017-11-25T10:53:44.398Z,85.10
2017-11-25T10:56:14.805Z,84.60
2017-11-25T10:58:46.869Z,84.30
2017-11-25T11:01:16.701Z,84.30
2017-11-25T11:03:46.489Z,84.40
2017-11-25T11:06:16.529Z,84.10
2017-11-25T11:08:46.444Z,84.10
2017-11-25T11:11:16.290Z,83.90
2017-11-25T11:13:46.064Z,83.90
2017-11-25T11:16:17.436Z,84.00
2017-11-25T11:18:47.535Z,84.00
2017-11-25T11:21:17.502Z,84.30
2017-11-25T11:23:47.363Z,84.30
2017-11-25T11:26:17.074Z,84.00
2017-11-25T11:28:47.127Z,84.20
2017-11-25T11:31:17.515Z,84.00
2017-11-25T11:33:47.225Z,84.30
2017-11-25T11:36:17.280Z,84.70
2017-11-25T11:38:47.888Z,85.00
2017-11-25T11:41:18.526Z,84.90
2017-11-25T11:43:49.341Z,85.20
2017-11-25T11:46:19.341Z,85.00
2017-11-25T11:48:49.082Z,84.70
2017-11-25T11:51:19.017Z,85.20
2017-11-25T11:53:49.610Z,85.20
2017-11-25T11:56:21.455Z,85.80
2017-11-25T11:58:51.543Z,85.40
2017-11-25T12:01:21.729Z,85.10
2017-11-25T12:03:52.544Z,85.10
2017-11-25T12:06:22.875Z,85.00
2017-11-25T12:08:52.558Z,84.80
2017-11-25T12:11:22.702Z,84.70
2017-11-25T12:13:52.903Z,84.80
2017-11-25T12:16:23.345Z,84.60
2017-11-25T12:18:53.398Z,84.40
2017-11-25T12:21:24.445Z,84.70
2017-11-25T12:23:54.420Z,84.60
2017-11-25T12:26:25.358Z,84.80
2017-11-25T12:28:55.405Z,84.80
2017-11-25T12:31:25.647Z,84.10
2017-11-25T12:33:56.005Z,83.80
2017-11-25T12:36:26.010Z,84.00
2017-11-25T12:38:55.964Z,83.70
2017-11-25T12:41:25.781Z,84.70
2017-11-25T12:43:56.507Z,84.50
2017-11-25T12:46:26.545Z,84.20
2017-11-25T12:48:56.737Z,84.30
2017-11-25T12:51:26.568Z,84.20
2017-11-25T12:53:56.489Z,84.30
2017-11-25T12:56:27.218Z,84.00
2017-11-25T12:58:57.143Z,84.10
2017-11-25T13:01:27.747Z,84.00
2017-11-25T13:03:57.661Z,84.00
2017-11-25T13:06:27.506Z,84.20
2017-11-25T13:08:57.453Z,84.10
2017-11-25T13:11:27.411Z,84.10
2017-11-25T13:13:57.673Z,84.70
2017-11-25T13:16:27.764Z,84.90
2017-11-25T13:18:58.463Z,85.20
2017-11-25T13:21:28.485Z,85.20
2017-11-25T13:23:58.611Z,86.30
2017-11-25T13:26:28.441Z,85.10
2017-11-25T13:28:58.435Z,85.10
2017-11-25T13:31:28.965Z,84.90
2017-11-25T13:33:58.886Z,85.10
2017-11-25T13:36:28.733Z,85.50
2017-11-25T13:38:58.756Z,85.70
2017-11-25T13:41:28.763Z,85.60
2017-11-25T13:43:58.541Z,85.60
2017-11-25T13:46:28.446Z,85.50
2017-11-25T13:48:58.496Z,86.20
2017-11-25T13:51:29.262Z,85.70
2017-11-25T13:53:59.421Z,85.70
2017-11-25T13:56:29.537Z,86.30
2017-11-25T13:59:00.277Z,85.60
2017-11-25T14:01:30.218Z,85.60
2017-11-25T14:04:00.304Z,85.30
2017-11-25T14:06:30.388Z,85.20
2017-11-25T14:09:00.313Z,85.40
2017-11-25T14:11:30.360Z,85.40
2017-11-25T14:14:00.267Z,85.70
2017-11-25T14:16:30.695Z,85.70
2017-11-25T14:19:00.817Z,85.80
2017-11-25T14:21:31.362Z,85.40
2017-11-25T14:24:03.018Z,85.20
2017-11-25T14:26:33.546Z,85.10
2017-11-25T14:29:04.689Z,85.20
2017-11-25T14:31:34.710Z,85.00
2017-11-25T14:34:06.539Z,84.90
2017-11-25T14:36:37.009Z,84.90
2017-11-25T14:39:07.810Z,84.80
2017-11-25T14:41:37.617Z,84.90
2017-11-25T14:44:08.682Z,84.80
2017-11-25T14:46:38.928Z,84.80
2017-11-25T14:49:09.355Z,84.60
2017-11-25T14:51:39.241Z,84.50
2017-11-25T14:54:09.549Z,84.50
2017-11-25T14:56:39.285Z,84.80
2017-11-25T14:59:10.010Z,85.40
2017-11-25T15:01:40.622Z,85.50
2017-11-25T15:04:10.228Z,85.80
2017-11-25T15:06:40.039Z,86.10
2017-11-25T15:09:09.857Z,86.00
2017-11-25T15:11:39.661Z,86.10
2017-11-25T15:14:09.637Z,86.50
2017-11-25T15:16:41.068Z,85.60
2017-11-25T15:19:11.093Z,85.30
2017-11-25T15:21:42.084Z,85.00
2017-11-25T15:24:12.820Z,85.20
2017-11-25T15:26:43.380Z,85.00
2017-11-25T15:29:13.177Z,84.90
2017-11-25T15:31:43.173Z,85.30
2017-11-25T15:34:13.294Z,85.40
2017-11-25T15:36:43.123Z,85.30
2017-11-25T15:39:13.945Z,85.20
2017-11-25T15:41:44.274Z,85.20
2017-11-25T15:44:14.384Z,85.20
2017-11-25T15:46:44.304Z,84.70
2017-11-25T15:49:14.415Z,84.60
2017-11-25T15:51:44.314Z,84.20
2017-11-25T15:54:14.449Z,84.10
2017-11-25T15:56:44.500Z,84.10
2017-11-25T15:59:14.587Z,83.90
2017-11-25T16:01:44.741Z,83.90
2017-11-25T16:04:14.757Z,84.00
2017-11-25T16:06:45.705Z,84.00
2017-11-25T16:09:15.935Z,83.90
2017-11-25T16:11:46.003Z,83.90
2017-11-25T16:14:15.918Z,84.00
2017-11-25T16:16:45.831Z,84.60
2017-11-25T16:19:15.663Z,83.90
2017-11-25T16:21:45.718Z,84.20
2017-11-25T16:24:15.834Z,85.00
2017-11-25T16:26:45.483Z,85.20
2017-11-25T16:29:15.531Z,85.30
2017-11-25T16:31:45.612Z,85.30
2017-11-25T16:34:15.592Z,85.00
2017-11-25T16:36:45.995Z,84.70
2017-11-25T16:39:17.223Z,84.60
2017-11-25T16:41:48.346Z,84.80
2017-11-25T16:44:18.288Z,85.50
2017-11-25T16:46:49.012Z,84.80
2017-11-25T16:49:19.831Z,84.50
2017-11-25T16:51:49.562Z,84.50
2017-11-25T16:54:19.456Z,84.30
2017-11-25T16:56:49.813Z,84.10
2017-11-25T16:59:19.619Z,84.20
2017-11-25T17:01:49.320Z,84.00
2017-11-25T17:04:20.051Z,84.10
2017-11-25T17:06:49.947Z,83.70
2017-11-25T17:09:19.764Z,84.10
2017-11-25T17:11:49.526Z,84.20
2017-11-25T17:14:19.188Z,84.10
2017-11-25T17:16:49.195Z,84.20
2017-11-25T17:19:19.774Z,83.70
2017-11-25T17:21:49.741Z,83.70
2017-11-25T17:24:19.372Z,83.70
2017-11-25T17:26:49.897Z,83.90
2017-11-25T17:29:20.307Z,83.90
2017-11-25T17:31:52.208Z,84.00
2017-11-25T17:34:22.749Z,84.00
2017-11-25T17:36:52.980Z,84.10
2017-11-25T17:39:23.236Z,84.00
2017-11-25T17:41:53.672Z,84.10
2017-11-25T17:44:25.507Z,84.00
2017-11-25T17:46:56.055Z,83.90
2017-11-25T17:49:26.452Z,83.90
2017-11-25T17:51:56.685Z,83.60
2017-11-25T17:54:27.094Z,83.90
2017-11-25T17:56:57.303Z,84.00
2017-11-25T17:59:27.050Z,83.80
2017-11-25T18:01:56.967Z,83.90
2017-11-25T18:04:26.953Z,83.90
2017-11-25T18:06:56.998Z,83.80
2017-11-25T18:09:26.632Z,83.50
2017-11-25T18:11:56.638Z,83.50
2017-11-25T18:14:26.343Z,83.80
2017-11-25T18:16:56.659Z,83.70
2017-11-25T18:19:26.781Z,83.80
2017-11-25T18:21:58.468Z,83.80
2017-11-25T18:24:29.701Z,84.40
2017-11-25T18:27:00.205Z,83.70
2017-11-25T18:29:30.250Z,83.70
2017-11-25T18:32:00.484Z,83.60
2017-11-25T18:34:30.645Z,83.60
2017-11-25T18:37:00.696Z,83.30
2017-11-25T18:39:31.347Z,83.20
2017-11-25T18:42:02.466Z,83.00
2017-11-25T18:44:33.243Z,83.10
2017-11-25T18:47:03.501Z,83.00
2017-11-25T18:49:33.974Z,83.10
2017-11-25T18:52:04.174Z,82.90
2017-11-25T18:54:34.569Z,83.00
2017-11-25T18:57:05.411Z,82.80
2017-11-25T18:59:35.818Z,82.80
2017-11-25T19:02:05.947Z,82.90
2017-11-25T19:04:36.054Z,82.90
2017-11-25T19:07:06.315Z,82.80
2017-11-25T19:09:36.634Z,82.80
2017-11-25T19:12:07.025Z,82.80
2017-11-25T19:14:38.523Z,82.60
2017-11-25T19:17:08.783Z,82.40
2017-11-25T19:19:40.110Z,82.60
2017-11-25T19:22:10.819Z,82.60
2017-11-25T19:24:41.445Z,82.60
2017-11-25T19:27:12.088Z,82.60
2017-11-25T19:29:43.092Z,82.60
2017-11-25T19:32:13.985Z,82.80
2017-11-25T19:34:45.236Z,82.90
2017-11-25T19:37:16.346Z,82.90
2017-11-25T19:39:47.588Z,83.00
2017-11-25T19:42:18.819Z,83.00
2017-11-25T19:44:49.803Z,82.60
2017-11-25T19:47:21.684Z,82.70
2017-11-25T19:49:53.433Z,82.80
2017-11-25T19:52:24.570Z,82.30
2017-11-25T19:54:56.183Z,82.30
2017-11-25T19:57:27.242Z,82.40
2017-11-25T19:59:58.583Z,82.40
2017-11-25T20:02:29.654Z,82.30
2017-11-25T20:05:00.684Z,82.30
2017-11-25T20:07:31.480Z,82.30
2017-11-25T20:10:02.451Z,82.30
2017-11-25T20:12:33.580Z,82.50
2017-11-25T20:15:04.725Z,82.90
2017-11-25T20:17:35.829Z,82.10
2017-11-25T20:20:06.628Z,82.20
2017-11-25T20:22:37.675Z,82.40
2017-11-25T20:25:08.327Z,82.90
2017-11-25T20:27:39.028Z,82.10
2017-11-25T20:30:09.559Z,82.20
2017-11-25T20:32:40.185Z,82.50
2017-11-25T20:35:11.268Z,82.50
2017-11-25T20:37:42.016Z,82.10
2017-11-25T20:40:12.770Z,82.20
2017-11-25T20:42:44.324Z,82.30
2017-11-25T20:45:15.185Z,82.20
2017-11-25T20:47:46.221Z,82.10
2017-11-25T20:50:17.110Z,82.60
2017-11-25T20:52:48.435Z,82.60
2017-11-25T20:55:18.983Z,82.60
2017-11-25T20:57:50.599Z,82.30
2017-11-25T21:00:21.159Z,82.30
2017-11-25T21:02:51.567Z,82.30
2017-11-25T21:05:22.311Z,82.50
2017-11-25T21:07:53.153Z,82.30
2017-11-25T21:10:24.900Z,82.50
2017-11-25T21:12:57.177Z,82.50
2017-11-25T21:15:28.579Z,82.70
2017-11-25T21:18:00.829Z,82.70
2017-11-25T21:20:31.285Z,82.90
2017-11-25T21:23:01.803Z,82.90
2017-11-25T21:25:32.367Z,82.90
2017-11-25T21:28:02.953Z,82.50
2017-11-25T21:30:33.730Z,82.70
2017-11-25T21:33:04.276Z,82.90
2017-11-25T21:35:35.608Z,83.00
2017-11-25T21:38:06.159Z,83.00
2017-11-25T21:40:36.907Z,83.00
2017-11-25T21:43:07.503Z,83.00
2017-11-25T21:45:38.340Z,82.90
2017-11-25T21:48:08.764Z,82.90
2017-11-25T21:50:39.113Z,83.10
2017-11-25T21:53:11.281Z,83.40
2017-11-25T21:55:41.781Z,83.30
2017-11-25T21:58:11.964Z,83.10
2017-11-25T22:00:43.399Z,83.60
2017-11-25T22:04:16.931Z,83.40
2017-11-25T22:06:48.087Z,83.60
2017-11-25T22:09:18.239Z,83.50
2017-11-25T22:11:48.583Z,83.70
2017-11-25T22:14:19.534Z,83.80
2017-11-25T22:16:49.476Z,83.60
2017-11-25T22:19:19.764Z,83.60
2017-11-25T22:21:49.612Z,83.60
2017-11-25T22:24:20.150Z,83.90
2017-11-25T22:26:51.242Z,83.80
2017-11-25T22:29:21.589Z,83.90
2017-11-25T22:31:51.924Z,83.70
2017-11-25T22:34:22.522Z,83.90
2017-11-25T22:36:52.437Z,83.90
2017-11-25T22:39:22.984Z,84.00
2017-11-25T22:41:53.395Z,84.00
2017-11-25T22:44:23.205Z,84.10
2017-11-25T22:46:53.175Z,84.00
2017-11-25T22:49:22.935Z,84.00
2017-11-25T22:51:54.827Z,83.90
2017-11-25T22:54:25.426Z,83.90
2017-11-25T22:56:56.768Z,84.10
2017-11-25T22:59:26.888Z,84.10
2017-11-25T23:01:56.788Z,84.20
2017-11-25T23:04:26.638Z,84.20
2017-11-25T23:06:56.628Z,84.00
2017-11-25T23:09:27.126Z,84.00
2017-11-25T23:11:57.079Z,84.10
2017-11-25T23:14:29.244Z,84.00
2017-11-25T23:17:00.013Z,84.00
2017-11-25T23:19:31.265Z,84.00
2017-11-25T23:22:01.234Z,84.00
2017-11-25T23:24:31.888Z,84.00
2017-11-25T23:27:02.422Z,84.20
2017-11-25T23:29:32.411Z,83.80
2017-11-25T23:32:02.327Z,83.90
2017-11-25T23:34:33.705Z,83.80
2017-11-25T23:37:04.642Z,83.70
2017-11-25T23:39:34.856Z,83.60
2017-11-25T23:42:05.383Z,84.00
2017-11-25T23:44:35.404Z,83.80
2017-11-25T23:47:05.289Z,83.80
2017-11-25T23:49:35.203Z,83.80
2017-11-25T23:52:04.916Z,83.80
2017-11-25T23:54:34.752Z,83.50
2017-11-25T23:57:04.649Z,83.80
2017-11-25T23:59:34.266Z,83.60
